sensor_id;sensor_type;location;lat;lon;timestamp;P1;durP1;ratioP1;P2;durP2;ratioP2
81320;SDS011;70785;52.570;5.638;2024-03-23T00:51:39;10.82;;;2.03;;
81320;SDS011;70785;52.570;5.638;2024-03-23T00:54:05;12.52;;;2.72;;
81320;SDS011;70785;52.570;5.638;2024-03-23T00:56:31;14.00;;;2.72;;
81320;SDS011;70785;52.570;5.638;2024-03-23T00:58:57;12.95;;;2.05;;
81320;SDS011;70785;52.570;5.638;2024-03-23T01:01:23;12.00;;;3.72;;
81320;SDS011;70785;52.570;5.638;2024-03-23T01:03:49;15.48;;;2.47;;
81320;SDS011;70785;52.570;5.638;2024-03-23T01:06:15;17.50;;;2.17;;
81320;SDS011;70785;52.570;5.638;2024-03-23T01:08:41;14.60;;;2.22;;
81320;SDS011;70785;52.570;5.638;2024-03-23T01:11:07;11.43;;;2.35;;
81320;SDS011;70785;52.570;5.638;2024-03-23T01:13:33;9.45;;;2.30;;
81320;SDS011;70785;52.570;5.638;2024-03-23T01:16:00;13.82;;;2.65;;
81320;SDS011;70785;52.570;5.638;2024-03-23T01:18:26;9.15;;;1.92;;
81320;SDS011;70785;52.570;5.638;2024-03-23T01:20:52;11.45;;;2.00;;
81320;SDS011;70785;52.570;5.638;2024-03-23T01:23:18;16.55;;;2.50;;
81320;SDS011;70785;52.570;5.638;2024-03-23T01:25:51;13.10;;;3.13;;
81320;SDS011;70785;52.570;5.638;2024-03-23T01:28:17;11.95;;;2.60;;
81320;SDS011;70785;52.570;5.638;2024-03-23T01:30:44;9.93;;;2.20;;
81320;SDS011;70785;52.570;5.638;2024-03-23T01:33:10;12.00;;;3.17;;
81320;SDS011;70785;52.570;5.638;2024-03-23T01:35:36;8.57;;;1.50;;
81320;SDS011;70785;52.570;5.638;2024-03-23T01:38:02;8.82;;;1.95;;
81320;SDS011;70785;52.570;5.638;2024-03-23T01:40:28;6.30;;;2.47;;
81320;SDS011;70785;52.570;5.638;2024-03-23T01:42:58;16.08;;;2.55;;
81320;SDS011;70785;52.570;5.638;2024-03-23T01:45:29;8.52;;;1.65;;
81320;SDS011;70785;52.570;5.638;2024-03-23T01:47:55;12.52;;;1.98;;
81320;SDS011;70785;52.570;5.638;2024-03-23T01:50:22;9.85;;;2.92;;
81320;SDS011;70785;52.570;5.638;2024-03-23T01:52:49;10.38;;;1.85;;
81320;SDS011;70785;52.570;5.638;2024-03-23T01:55:16;6.03;;;1.25;;
81320;SDS011;70785;52.570;5.638;2024-03-23T01:57:42;7.57;;;1.00;;
81320;SDS011;70785;52.570;5.638;2024-03-23T02:00:08;11.05;;;1.30;;
81320;SDS011;70785;52.570;5.638;2024-03-23T02:02:46;7.68;;;1.30;;
81320;SDS011;70785;52.570;5.638;2024-03-23T02:05:12;7.05;;;1.50;;
81320;SDS011;70785;52.570;5.638;2024-03-23T02:07:39;4.85;;;2.03;;
81320;SDS011;70785;52.570;5.638;2024-03-23T02:10:06;7.65;;;1.35;;
81320;SDS011;70785;52.570;5.638;2024-03-23T02:12:33;7.53;;;1.25;;
81320;SDS011;70785;52.570;5.638;2024-03-23T02:15:00;7.82;;;1.15;;
81320;SDS011;70785;52.570;5.638;2024-03-23T02:17:27;10.25;;;1.83;;
81320;SDS011;70785;52.570;5.638;2024-03-23T02:19:55;6.70;;;1.80;;
81320;SDS011;70785;52.570;5.638;2024-03-23T02:22:21;9.57;;;1.35;;
81320;SDS011;70785;52.570;5.638;2024-03-23T02:24:47;7.30;;;1.05;;
81320;SDS011;70785;52.570;5.638;2024-03-23T02:27:13;5.18;;;0.93;;
81320;SDS011;70785;52.570;5.638;2024-03-23T02:29:40;8.25;;;1.95;;
81320;SDS011;70785;52.570;5.638;2024-03-23T02:32:06;8.90;;;1.70;;
81320;SDS011;70785;52.570;5.638;2024-03-23T02:34:34;13.40;;;1.30;;
81320;SDS011;70785;52.570;5.638;2024-03-23T02:37:01;7.25;;;0.73;;
81320;SDS011;70785;52.570;5.638;2024-03-23T02:39:27;6.40;;;0.85;;
81320;SDS011;70785;52.570;5.638;2024-03-23T02:41:54;6.05;;;1.13;;
81320;SDS011;70785;52.570;5.638;2024-03-23T02:44:20;6.03;;;0.98;;
81320;SDS011;70785;52.570;5.638;2024-03-23T02:46:46;12.40;;;2.45;;
81320;SDS011;70785;52.570;5.638;2024-03-23T02:49:13;8.32;;;0.80;;
81320;SDS011;70785;52.570;5.638;2024-03-23T02:51:39;6.65;;;1.38;;
81320;SDS011;70785;52.570;5.638;2024-03-23T02:54:06;7.78;;;1.13;;
81320;SDS011;70785;52.570;5.638;2024-03-23T02:56:32;6.72;;;1.02;;
81320;SDS011;70785;52.570;5.638;2024-03-23T02:58:58;6.30;;;1.50;;
81320;SDS011;70785;52.570;5.638;2024-03-23T03:01:25;10.85;;;1.52;;
81320;SDS011;70785;52.570;5.638;2024-03-23T03:03:51;8.88;;;1.75;;
81320;SDS011;70785;52.570;5.638;2024-03-23T03:06:24;7.38;;;1.10;;
81320;SDS011;70785;52.570;5.638;2024-03-23T03:08:51;6.97;;;1.27;;
81320;SDS011;70785;52.570;5.638;2024-03-23T03:11:17;6.45;;;1.33;;
81320;SDS011;70785;52.570;5.638;2024-03-23T03:13:43;4.00;;;0.80;;
81320;SDS011;70785;52.570;5.638;2024-03-23T03:16:12;7.90;;;1.52;;
81320;SDS011;70785;52.570;5.638;2024-03-23T03:18:38;8.18;;;1.38;;
81320;SDS011;70785;52.570;5.638;2024-03-23T03:21:06;11.38;;;1.63;;
81320;SDS011;70785;52.570;5.638;2024-03-23T03:23:39;6.43;;;0.80;;
81320;SDS011;70785;52.570;5.638;2024-03-23T03:26:05;5.05;;;0.80;;
81320;SDS011;70785;52.570;5.638;2024-03-23T03:28:32;6.03;;;1.23;;
81320;SDS011;70785;52.570;5.638;2024-03-23T03:31:01;12.68;;;1.05;;
81320;SDS011;70785;52.570;5.638;2024-03-23T03:33:27;8.07;;;1.40;;
81320;SDS011;70785;52.570;5.638;2024-03-23T03:35:54;6.05;;;0.93;;
81320;SDS011;70785;52.570;5.638;2024-03-23T03:38:20;9.35;;;1.40;;
81320;SDS011;70785;52.570;5.638;2024-03-23T03:40:46;6.85;;;0.85;;
81320;SDS011;70785;52.570;5.638;2024-03-23T03:43:12;11.43;;;1.08;;
81320;SDS011;70785;52.570;5.638;2024-03-23T03:45:39;10.55;;;1.08;;
81320;SDS011;70785;52.570;5.638;2024-03-23T03:48:06;8.50;;;0.50;;
81320;SDS011;70785;52.570;5.638;2024-03-23T03:50:32;4.78;;;1.05;;
81320;SDS011;70785;52.570;5.638;2024-03-23T03:52:58;8.60;;;1.23;;
81320;SDS011;70785;52.570;5.638;2024-03-23T03:55:24;7.85;;;0.80;;
81320;SDS011;70785;52.570;5.638;2024-03-23T03:57:51;6.97;;;0.85;;
81320;SDS011;70785;52.570;5.638;2024-03-23T04:00:17;6.72;;;0.82;;
81320;SDS011;70785;52.570;5.638;2024-03-23T04:02:43;7.35;;;0.90;;
81320;SDS011;70785;52.570;5.638;2024-03-23T04:05:09;8.35;;;1.05;;
81320;SDS011;70785;52.570;5.638;2024-03-23T04:07:35;3.13;;;0.73;;
81320;SDS011;70785;52.570;5.638;2024-03-23T04:10:01;7.03;;;0.95;;
81320;SDS011;70785;52.570;5.638;2024-03-23T04:12:31;8.23;;;0.63;;
81320;SDS011;70785;52.570;5.638;2024-03-23T04:14:57;4.75;;;0.77;;
81320;SDS011;70785;52.570;5.638;2024-03-23T04:17:23;5.57;;;1.00;;
81320;SDS011;70785;52.570;5.638;2024-03-23T04:19:50;5.80;;;1.13;;
81320;SDS011;70785;52.570;5.638;2024-03-23T04:22:18;4.63;;;0.70;;
81320;SDS011;70785;52.570;5.638;2024-03-23T04:24:44;7.70;;;0.80;;
81320;SDS011;70785;52.570;5.638;2024-03-23T04:27:10;6.80;;;1.00;;
81320;SDS011;70785;52.570;5.638;2024-03-23T04:29:36;4.70;;;0.82;;
81320;SDS011;70785;52.570;5.638;2024-03-23T04:32:02;8.77;;;1.73;;
81320;SDS011;70785;52.570;5.638;2024-03-23T04:34:28;4.57;;;1.08;;
81320;SDS011;70785;52.570;5.638;2024-03-23T04:36:54;6.18;;;0.60;;
81320;SDS011;70785;52.570;5.638;2024-03-23T04:39:20;3.60;;;0.63;;
81320;SDS011;70785;52.570;5.638;2024-03-23T04:41:47;6.85;;;0.65;;
81320;SDS011;70785;52.570;5.638;2024-03-23T04:44:13;4.65;;;0.82;;
81320;SDS011;70785;52.570;5.638;2024-03-23T04:46:39;4.75;;;1.00;;
81320;SDS011;70785;52.570;5.638;2024-03-23T04:49:05;7.60;;;0.57;;
81320;SDS011;70785;52.570;5.638;2024-03-23T04:51:35;9.57;;;1.15;;
81320;SDS011;70785;52.570;5.638;2024-03-23T04:54:05;6.15;;;0.60;;
81320;SDS011;70785;52.570;5.638;2024-03-23T04:56:31;8.25;;;0.80;;
81320;SDS011;70785;52.570;5.638;2024-03-23T04:58:58;3.08;;;0.98;;
81320;SDS011;70785;52.570;5.638;2024-03-23T05:01:27;7.45;;;1.10;;
81320;SDS011;70785;52.570;5.638;2024-03-23T05:03:53;3.72;;;0.60;;
81320;SDS011;70785;52.570;5.638;2024-03-23T05:06:19;8.50;;;1.38;;
81320;SDS011;70785;52.570;5.638;2024-03-23T05:08:45;8.07;;;0.88;;
81320;SDS011;70785;52.570;5.638;2024-03-23T05:11:12;6.68;;;0.80;;
81320;SDS011;70785;52.570;5.638;2024-03-23T05:13:38;6.60;;;1.77;;
81320;SDS011;70785;52.570;5.638;2024-03-23T05:16:04;6.53;;;0.50;;
81320;SDS011;70785;52.570;5.638;2024-03-23T05:18:30;5.90;;;1.05;;
81320;SDS011;70785;52.570;5.638;2024-03-23T05:20:57;4.80;;;1.08;;
81320;SDS011;70785;52.570;5.638;2024-03-23T05:23:24;5.28;;;0.70;;
81320;SDS011;70785;52.570;5.638;2024-03-23T05:25:51;6.40;;;0.98;;
81320;SDS011;70785;52.570;5.638;2024-03-23T05:28:18;4.57;;;0.80;;
81320;SDS011;70785;52.570;5.638;2024-03-23T05:30:44;6.80;;;0.80;;
81320;SDS011;70785;52.570;5.638;2024-03-23T05:33:19;8.27;;;1.17;;
81320;SDS011;70785;52.570;5.638;2024-03-23T05:35:46;7.05;;;0.90;;
81320;SDS011;70785;52.570;5.638;2024-03-23T05:38:13;12.65;;;1.50;;
81320;SDS011;70785;52.570;5.638;2024-03-23T05:40:39;11.10;;;1.42;;
81320;SDS011;70785;52.570;5.638;2024-03-23T05:43:06;9.43;;;1.52;;
81320;SDS011;70785;52.570;5.638;2024-03-23T05:45:32;7.07;;;1.10;;
81320;SDS011;70785;52.570;5.638;2024-03-23T05:47:58;3.97;;;0.57;;
81320;SDS011;70785;52.570;5.638;2024-03-23T05:50:24;7.82;;;0.93;;
81320;SDS011;70785;52.570;5.638;2024-03-23T05:52:51;4.43;;;0.80;;
81320;SDS011;70785;52.570;5.638;2024-03-23T05:55:17;6.47;;;1.30;;
81320;SDS011;70785;52.570;5.638;2024-03-23T05:57:43;5.63;;;1.08;;
81320;SDS011;70785;52.570;5.638;2024-03-23T06:00:10;5.78;;;1.27;;
81320;SDS011;70785;52.570;5.638;2024-03-23T06:02:44;7.45;;;0.95;;
81320;SDS011;70785;52.570;5.638;2024-03-23T06:05:11;3.97;;;0.82;;
81320;SDS011;70785;52.570;5.638;2024-03-23T06:07:37;6.50;;;1.15;;
81320;SDS011;70785;52.570;5.638;2024-03-23T06:10:06;4.72;;;1.08;;
81320;SDS011;70785;52.570;5.638;2024-03-23T06:12:32;11.57;;;1.70;;
81320;SDS011;70785;52.570;5.638;2024-03-23T06:14:58;4.22;;;1.10;;
81320;SDS011;70785;52.570;5.638;2024-03-23T06:17:25;6.55;;;1.42;;
81320;SDS011;70785;52.570;5.638;2024-03-23T06:19:51;6.90;;;1.10;;
81320;SDS011;70785;52.570;5.638;2024-03-23T06:22:17;11.32;;;1.20;;
81320;SDS011;70785;52.570;5.638;2024-03-23T06:24:44;6.25;;;1.10;;
81320;SDS011;70785;52.570;5.638;2024-03-23T06:27:10;4.65;;;0.82;;
81320;SDS011;70785;52.570;5.638;2024-03-23T06:29:36;10.27;;;1.20;;
81320;SDS011;70785;52.570;5.638;2024-03-23T06:32:02;3.10;;;0.88;;
81320;SDS011;70785;52.570;5.638;2024-03-23T06:34:29;4.05;;;1.05;;
81320;SDS011;70785;52.570;5.638;2024-03-23T06:36:55;4.93;;;0.80;;
81320;SDS011;70785;52.570;5.638;2024-03-23T06:39:21;4.97;;;1.63;;
81320;SDS011;70785;52.570;5.638;2024-03-23T06:41:51;4.13;;;0.88;;
81320;SDS011;70785;52.570;5.638;2024-03-23T06:44:18;4.55;;;1.13;;
81320;SDS011;70785;52.570;5.638;2024-03-23T06:46:45;3.55;;;1.27;;
81320;SDS011;70785;52.570;5.638;2024-03-23T06:49:11;3.20;;;0.73;;
81320;SDS011;70785;52.570;5.638;2024-03-23T06:51:37;2.85;;;0.85;;
81320;SDS011;70785;52.570;5.638;2024-03-23T06:54:05;1.77;;;0.32;;
81320;SDS011;70785;52.570;5.638;2024-03-23T06:56:31;3.83;;;0.70;;
81320;SDS011;70785;52.570;5.638;2024-03-23T06:58:57;1.08;;;0.30;;
81320;SDS011;70785;52.570;5.638;2024-03-23T07:01:24;1.85;;;0.40;;
81320;SDS011;70785;52.570;5.638;2024-03-23T07:03:50;1.95;;;0.40;;
81320;SDS011;70785;52.570;5.638;2024-03-23T07:06:16;2.85;;;0.40;;
81320;SDS011;70785;52.570;5.638;2024-03-23T07:08:43;3.65;;;0.52;;
81320;SDS011;70785;52.570;5.638;2024-03-23T07:11:09;3.67;;;1.17;;
81320;SDS011;70785;52.570;5.638;2024-03-23T07:13:35;1.67;;;0.75;;
81320;SDS011;70785;52.570;5.638;2024-03-23T07:16:01;6.10;;;0.70;;
81320;SDS011;70785;52.570;5.638;2024-03-23T07:18:27;5.03;;;0.60;;
81320;SDS011;70785;52.570;5.638;2024-03-23T07:20:57;5.57;;;1.35;;
81320;SDS011;70785;52.570;5.638;2024-03-23T07:23:24;4.35;;;0.70;;
81320;SDS011;70785;52.570;5.638;2024-03-23T07:26:03;4.47;;;0.80;;
81320;SDS011;70785;52.570;5.638;2024-03-23T07:28:33;2.08;;;0.55;;
81320;SDS011;70785;52.570;5.638;2024-03-23T07:31:08;1.50;;;0.52;;
81320;SDS011;70785;52.570;5.638;2024-03-23T07:33:45;2.90;;;0.50;;
81320;SDS011;70785;52.570;5.638;2024-03-23T07:36:12;1.88;;;0.60;;
81320;SDS011;70785;52.570;5.638;2024-03-23T07:38:42;2.83;;;0.75;;
81320;SDS011;70785;52.570;5.638;2024-03-23T07:41:19;4.80;;;1.63;;
81320;SDS011;70785;52.570;5.638;2024-03-23T07:43:46;4.07;;;1.00;;
81320;SDS011;70785;52.570;5.638;2024-03-23T07:46:14;2.35;;;0.60;;
81320;SDS011;70785;52.570;5.638;2024-03-23T07:48:40;5.18;;;1.13;;
81320;SDS011;70785;52.570;5.638;2024-03-23T07:51:08;3.13;;;0.32;;
81320;SDS011;70785;52.570;5.638;2024-03-23T07:53:36;1.00;;;0.25;;
81320;SDS011;70785;52.570;5.638;2024-03-23T07:56:04;2.13;;;0.52;;
81320;SDS011;70785;52.570;5.638;2024-03-23T07:58:31;3.65;;;0.60;;
81320;SDS011;70785;52.570;5.638;2024-03-23T08:01:07;1.35;;;0.43;;
81320;SDS011;70785;52.570;5.638;2024-03-23T08:03:37;1.70;;;0.40;;
81320;SDS011;70785;52.570;5.638;2024-03-23T08:06:12;2.17;;;0.50;;
81320;SDS011;70785;52.570;5.638;2024-03-23T08:08:40;3.28;;;0.50;;
81320;SDS011;70785;52.570;5.638;2024-03-23T08:11:07;6.05;;;1.17;;
81320;SDS011;70785;52.570;5.638;2024-03-23T08:13:34;2.50;;;0.60;;
81320;SDS011;70785;52.570;5.638;2024-03-23T08:16:02;5.57;;;1.00;;
81320;SDS011;70785;52.570;5.638;2024-03-23T08:18:29;3.97;;;0.60;;
81320;SDS011;70785;52.570;5.638;2024-03-23T08:21:05;7.05;;;0.98;;
81320;SDS011;70785;52.570;5.638;2024-03-23T08:23:32;6.10;;;0.95;;
81320;SDS011;70785;52.570;5.638;2024-03-23T08:26:02;4.97;;;0.77;;
81320;SDS011;70785;52.570;5.638;2024-03-23T08:31:04;4.00;;;0.57;;
81320;SDS011;70785;52.570;5.638;2024-03-23T08:33:32;1.73;;;0.77;;
81320;SDS011;70785;52.570;5.638;2024-03-23T08:38:26;5.35;;;0.73;;
81320;SDS011;70785;52.570;5.638;2024-03-23T08:40:56;6.97;;;1.02;;
81320;SDS011;70785;52.570;5.638;2024-03-23T08:43:24;4.50;;;1.02;;
81320;SDS011;70785;52.570;5.638;2024-03-23T08:45:50;5.15;;;1.17;;
81320;SDS011;70785;52.570;5.638;2024-03-23T08:48:18;5.55;;;1.40;;
81320;SDS011;70785;52.570;5.638;2024-03-23T08:50:46;9.07;;;2.40;;
81320;SDS011;70785;52.570;5.638;2024-03-23T08:53:14;4.25;;;0.65;;
81320;SDS011;70785;52.570;5.638;2024-03-23T08:55:40;4.03;;;0.82;;
81320;SDS011;70785;52.570;5.638;2024-03-23T08:58:06;3.88;;;0.80;;
81320;SDS011;70785;52.570;5.638;2024-03-23T09:00:34;4.70;;;0.93;;
81320;SDS011;70785;52.570;5.638;2024-03-23T09:03:00;4.05;;;0.57;;
81320;SDS011;70785;52.570;5.638;2024-03-23T09:05:28;2.78;;;0.80;;
81320;SDS011;70785;52.570;5.638;2024-03-23T09:07:56;6.57;;;1.55;;
81320;SDS011;70785;52.570;5.638;2024-03-23T09:10:22;7.88;;;1.15;;
81320;SDS011;70785;52.570;5.638;2024-03-23T09:12:48;4.75;;;0.80;;
81320;SDS011;70785;52.570;5.638;2024-03-23T09:15:14;7.18;;;0.80;;
81320;SDS011;70785;52.570;5.638;2024-03-23T09:17:40;5.45;;;1.55;;
81320;SDS011;70785;52.570;5.638;2024-03-23T09:20:07;10.25;;;1.23;;
81320;SDS011;70785;52.570;5.638;2024-03-23T09:22:34;3.38;;;0.60;;
81320;SDS011;70785;52.570;5.638;2024-03-23T09:25:00;7.95;;;2.13;;
81320;SDS011;70785;52.570;5.638;2024-03-23T09:27:26;5.03;;;0.90;;
81320;SDS011;70785;52.570;5.638;2024-03-23T09:29:52;4.75;;;0.60;;
81320;SDS011;70785;52.570;5.638;2024-03-23T09:32:18;4.53;;;0.70;;
81320;SDS011;70785;52.570;5.638;2024-03-23T09:34:44;3.80;;;1.35;;
81320;SDS011;70785;52.570;5.638;2024-03-23T09:37:11;4.75;;;0.32;;
81320;SDS011;70785;52.570;5.638;2024-03-23T09:39:37;6.00;;;0.75;;
81320;SDS011;70785;52.570;5.638;2024-03-23T09:42:03;2.55;;;0.40;;
81320;SDS011;70785;52.570;5.638;2024-03-23T09:44:30;1.75;;;0.77;;
81320;SDS011;70785;52.570;5.638;2024-03-23T09:46:56;2.90;;;0.85;;
81320;SDS011;70785;52.570;5.638;2024-03-23T09:49:22;6.55;;;0.85;;
81320;SDS011;70785;52.570;5.638;2024-03-23T09:51:48;9.95;;;0.85;;
81320;SDS011;70785;52.570;5.638;2024-03-23T09:54:14;4.13;;;1.17;;
81320;SDS011;70785;52.570;5.638;2024-03-23T09:56:40;4.60;;;1.15;;
81320;SDS011;70785;52.570;5.638;2024-03-23T09:59:07;3.42;;;0.77;;
81320;SDS011;70785;52.570;5.638;2024-03-23T10:01:33;6.25;;;0.70;;
81320;SDS011;70785;52.570;5.638;2024-03-23T10:03:59;3.38;;;0.43;;
81320;SDS011;70785;52.570;5.638;2024-03-23T10:06:25;3.17;;;0.95;;
81320;SDS011;70785;52.570;5.638;2024-03-23T10:08:52;5.72;;;0.98;;
81320;SDS011;70785;52.570;5.638;2024-03-23T10:11:19;4.15;;;0.68;;
81320;SDS011;70785;52.570;5.638;2024-03-23T10:13:47;4.85;;;0.75;;
81320;SDS011;70785;52.570;5.638;2024-03-23T10:16:23;7.60;;;1.95;;
81320;SDS011;70785;52.570;5.638;2024-03-23T10:18:49;6.10;;;0.88;;
81320;SDS011;70785;52.570;5.638;2024-03-23T10:21:16;3.78;;;0.80;;
81320;SDS011;70785;52.570;5.638;2024-03-23T10:23:43;5.47;;;1.42;;
81320;SDS011;70785;52.570;5.638;2024-03-23T10:26:20;5.57;;;1.83;;
81320;SDS011;70785;52.570;5.638;2024-03-23T10:28:57;6.05;;;0.50;;
81320;SDS011;70785;52.570;5.638;2024-03-23T10:31:29;3.25;;;1.02;;
81320;SDS011;70785;52.570;5.638;2024-03-23T10:33:58;5.65;;;1.15;;
81320;SDS011;70785;52.570;5.638;2024-03-23T10:36:26;4.20;;;0.70;;
81320;SDS011;70785;52.570;5.638;2024-03-23T10:38:53;3.50;;;0.98;;
81320;SDS011;70785;52.570;5.638;2024-03-23T10:41:20;5.00;;;0.80;;
81320;SDS011;70785;52.570;5.638;2024-03-23T10:43:47;2.35;;;0.98;;
81320;SDS011;70785;52.570;5.638;2024-03-23T10:46:14;4.97;;;0.50;;
81320;SDS011;70785;52.570;5.638;2024-03-23T10:48:40;7.00;;;0.68;;
81320;SDS011;70785;52.570;5.638;2024-03-23T10:51:08;4.25;;;0.82;;
81320;SDS011;70785;52.570;5.638;2024-03-23T10:53:36;10.65;;;1.90;;
81320;SDS011;70785;52.570;5.638;2024-03-23T10:56:02;5.25;;;0.80;;
81320;SDS011;70785;52.570;5.638;2024-03-23T10:58:31;4.35;;;0.68;;
81320;SDS011;70785;52.570;5.638;2024-03-23T11:01:03;3.67;;;0.50;;
81320;SDS011;70785;52.570;5.638;2024-03-23T11:03:30;4.38;;;0.65;;
81320;SDS011;70785;52.570;5.638;2024-03-23T11:06:00;5.88;;;0.82;;
81320;SDS011;70785;52.570;5.638;2024-03-23T11:08:30;4.30;;;1.00;;
81320;SDS011;70785;52.570;5.638;2024-03-23T11:11:18;5.30;;;1.20;;
81320;SDS011;70785;52.570;5.638;2024-03-23T11:13:49;2.95;;;1.05;;
81320;SDS011;70785;52.570;5.638;2024-03-23T11:16:16;2.25;;;0.60;;
81320;SDS011;70785;52.570;5.638;2024-03-23T11:18:50;4.60;;;0.63;;
81320;SDS011;70785;52.570;5.638;2024-03-23T11:24:18;3.42;;;1.05;;
81320;SDS011;70785;52.570;5.638;2024-03-23T11:26:45;6.10;;;1.00;;
81320;SDS011;70785;52.570;5.638;2024-03-23T11:29:12;7.15;;;1.30;;
81320;SDS011;70785;52.570;5.638;2024-03-23T11:31:45;2.58;;;0.95;;
81320;SDS011;70785;52.570;5.638;2024-03-23T11:34:15;4.05;;;0.80;;
81320;SDS011;70785;52.570;5.638;2024-03-23T11:36:42;5.90;;;1.40;;
81320;SDS011;70785;52.570;5.638;2024-03-23T11:39:15;7.53;;;0.90;;
81320;SDS011;70785;52.570;5.638;2024-03-23T11:41:52;5.15;;;0.73;;
81320;SDS011;70785;52.570;5.638;2024-03-23T11:44:23;4.43;;;0.50;;
81320;SDS011;70785;52.570;5.638;2024-03-23T11:46:51;1.60;;;0.22;;
81320;SDS011;70785;52.570;5.638;2024-03-23T11:51:51;4.75;;;1.00;;
81320;SDS011;70785;52.570;5.638;2024-03-23T11:54:22;2.67;;;0.55;;
81320;SDS011;70785;52.570;5.638;2024-03-23T11:59:37;3.88;;;1.63;;
81320;SDS011;70785;52.570;5.638;2024-03-23T12:04:33;2.72;;;0.70;;
81320;SDS011;70785;52.570;5.638;2024-03-23T12:07:17;4.68;;;1.20;;
81320;SDS011;70785;52.570;5.638;2024-03-23T12:09:46;4.85;;;0.77;;
81320;SDS011;70785;52.570;5.638;2024-03-23T12:12:27;5.88;;;1.33;;
81320;SDS011;70785;52.570;5.638;2024-03-23T12:17:29;2.28;;;0.52;;
81320;SDS011;70785;52.570;5.638;2024-03-23T12:19:55;7.05;;;1.17;;
81320;SDS011;70785;52.570;5.638;2024-03-23T12:22:22;3.40;;;1.08;;
81320;SDS011;70785;52.570;5.638;2024-03-23T12:24:48;2.95;;;0.20;;
81320;SDS011;70785;52.570;5.638;2024-03-23T12:27:14;3.63;;;0.52;;
81320;SDS011;70785;52.570;5.638;2024-03-23T12:29:41;2.30;;;0.90;;
81320;SDS011;70785;52.570;5.638;2024-03-23T12:32:08;3.05;;;0.52;;
81320;SDS011;70785;52.570;5.638;2024-03-23T12:34:35;1.77;;;0.28;;
81320;SDS011;70785;52.570;5.638;2024-03-23T12:37:01;0.95;;;0.22;;
81320;SDS011;70785;52.570;5.638;2024-03-23T12:39:27;1.95;;;0.22;;
81320;SDS011;70785;52.570;5.638;2024-03-23T12:41:53;4.80;;;1.00;;
81320;SDS011;70785;52.570;5.638;2024-03-23T12:44:19;3.17;;;0.25;;
81320;SDS011;70785;52.570;5.638;2024-03-23T12:46:45;1.58;;;0.20;;
81320;SDS011;70785;52.570;5.638;2024-03-23T12:49:11;1.95;;;0.70;;
81320;SDS011;70785;52.570;5.638;2024-03-23T12:51:38;2.80;;;0.52;;
81320;SDS011;70785;52.570;5.638;2024-03-23T12:54:04;5.40;;;0.50;;
81320;SDS011;70785;52.570;5.638;2024-03-23T12:56:30;3.53;;;0.65;;
81320;SDS011;70785;52.570;5.638;2024-03-23T12:58:56;1.75;;;0.47;;
81320;SDS011;70785;52.570;5.638;2024-03-23T13:01:23;3.80;;;0.35;;
81320;SDS011;70785;52.570;5.638;2024-03-23T13:03:49;2.03;;;0.20;;
81320;SDS011;70785;52.570;5.638;2024-03-23T13:06:18;2.38;;;0.45;;
81320;SDS011;70785;52.570;5.638;2024-03-23T13:08:45;2.53;;;0.60;;
81320;SDS011;70785;52.570;5.638;2024-03-23T13:11:11;1.23;;;0.45;;
81320;SDS011;70785;52.570;5.638;2024-03-23T13:13:39;5.15;;;0.98;;
81320;SDS011;70785;52.570;5.638;2024-03-23T13:16:07;5.85;;;1.25;;
81320;SDS011;70785;52.570;5.638;2024-03-23T13:18:33;8.20;;;1.20;;
81320;SDS011;70785;52.570;5.638;2024-03-23T13:21:00;4.82;;;1.20;;
81320;SDS011;70785;52.570;5.638;2024-03-23T13:23:26;7.20;;;1.05;;
81320;SDS011;70785;52.570;5.638;2024-03-23T13:25:53;7.35;;;1.08;;
81320;SDS011;70785;52.570;5.638;2024-03-23T13:28:20;5.95;;;1.23;;
81320;SDS011;70785;52.570;5.638;2024-03-23T13:30:50;3.83;;;1.08;;
81320;SDS011;70785;52.570;5.638;2024-03-23T13:33:17;1.40;;;0.20;;
81320;SDS011;70785;52.570;5.638;2024-03-23T13:35:52;2.78;;;0.82;;
81320;SDS011;70785;52.570;5.638;2024-03-23T13:38:20;2.25;;;0.50;;
81320;SDS011;70785;52.570;5.638;2024-03-23T13:40:53;4.15;;;0.73;;
81320;SDS011;70785;52.570;5.638;2024-03-23T13:43:19;2.83;;;1.13;;
81320;SDS011;70785;52.570;5.638;2024-03-23T13:45:46;3.67;;;1.15;;
81320;SDS011;70785;52.570;5.638;2024-03-23T13:48:13;3.47;;;0.60;;
81320;SDS011;70785;52.570;5.638;2024-03-23T13:50:41;3.25;;;0.50;;
81320;SDS011;70785;52.570;5.638;2024-03-23T13:53:07;3.88;;;0.88;;
81320;SDS011;70785;52.570;5.638;2024-03-23T13:55:34;6.72;;;0.80;;
81320;SDS011;70785;52.570;5.638;2024-03-23T13:58:01;2.38;;;1.10;;
81320;SDS011;70785;52.570;5.638;2024-03-23T14:00:27;2.22;;;0.40;;
81320;SDS011;70785;52.570;5.638;2024-03-23T14:02:53;4.47;;;0.60;;
81320;SDS011;70785;52.570;5.638;2024-03-23T14:05:19;5.30;;;1.10;;
81320;SDS011;70785;52.570;5.638;2024-03-23T14:07:45;2.53;;;0.50;;
81320;SDS011;70785;52.570;5.638;2024-03-23T14:10:11;2.53;;;0.50;;
81320;SDS011;70785;52.570;5.638;2024-03-23T14:12:38;4.78;;;0.90;;
81320;SDS011;70785;52.570;5.638;2024-03-23T14:15:05;1.73;;;0.40;;
81320;SDS011;70785;52.570;5.638;2024-03-23T14:17:32;4.43;;;0.80;;
81320;SDS011;70785;52.570;5.638;2024-03-23T14:19:58;3.13;;;0.73;;
81320;SDS011;70785;52.570;5.638;2024-03-23T14:22:27;2.90;;;0.85;;
81320;SDS011;70785;52.570;5.638;2024-03-23T14:24:53;2.03;;;0.30;;
81320;SDS011;70785;52.570;5.638;2024-03-23T14:27:20;2.97;;;0.50;;
81320;SDS011;70785;52.570;5.638;2024-03-23T14:29:47;2.72;;;0.50;;
81320;SDS011;70785;52.570;5.638;2024-03-23T14:32:13;4.65;;;0.47;;
81320;SDS011;70785;52.570;5.638;2024-03-23T14:34:40;3.15;;;1.23;;
81320;SDS011;70785;52.570;5.638;2024-03-23T14:37:07;4.03;;;0.68;;
81320;SDS011;70785;52.570;5.638;2024-03-23T14:39:33;3.75;;;0.68;;
81320;SDS011;70785;52.570;5.638;2024-03-23T14:42:04;3.42;;;0.52;;
81320;SDS011;70785;52.570;5.638;2024-03-23T14:44:34;5.65;;;0.68;;
81320;SDS011;70785;52.570;5.638;2024-03-23T14:47:00;2.83;;;0.60;;
81320;SDS011;70785;52.570;5.638;2024-03-23T14:49:26;6.13;;;1.02;;
81320;SDS011;70785;52.570;5.638;2024-03-23T14:51:52;2.28;;;0.52;;
81320;SDS011;70785;52.570;5.638;2024-03-23T14:54:18;1.25;;;0.60;;
81320;SDS011;70785;52.570;5.638;2024-03-23T14:56:44;2.35;;;0.55;;
81320;SDS011;70785;52.570;5.638;2024-03-23T14:59:12;2.83;;;0.52;;
81320;SDS011;70785;52.570;5.638;2024-03-23T15:01:39;3.38;;;0.52;;
81320;SDS011;70785;52.570;5.638;2024-03-23T15:04:05;3.83;;;0.60;;
81320;SDS011;70785;52.570;5.638;2024-03-23T15:06:31;2.25;;;0.28;;
81320;SDS011;70785;52.570;5.638;2024-03-23T15:08:59;2.20;;;0.63;;
81320;SDS011;70785;52.570;5.638;2024-03-23T15:11:25;3.60;;;0.75;;
81320;SDS011;70785;52.570;5.638;2024-03-23T15:13:51;2.25;;;0.45;;
81320;SDS011;70785;52.570;5.638;2024-03-23T15:16:17;6.85;;;0.70;;
81320;SDS011;70785;52.570;5.638;2024-03-23T15:18:45;2.08;;;0.50;;
81320;SDS011;70785;52.570;5.638;2024-03-23T15:21:11;3.88;;;0.80;;
81320;SDS011;70785;52.570;5.638;2024-03-23T15:23:39;2.85;;;0.60;;
81320;SDS011;70785;52.570;5.638;2024-03-23T15:26:09;4.57;;;0.90;;
81320;SDS011;70785;52.570;5.638;2024-03-23T15:28:35;3.28;;;0.90;;
81320;SDS011;70785;52.570;5.638;2024-03-23T15:31:20;1.08;;;0.43;;
81320;SDS011;70785;52.570;5.638;2024-03-23T15:33:46;2.20;;;0.35;;
81320;SDS011;70785;52.570;5.638;2024-03-23T15:36:12;2.63;;;0.60;;
81320;SDS011;70785;52.570;5.638;2024-03-23T15:38:38;3.50;;;0.30;;
81320;SDS011;70785;52.570;5.638;2024-03-23T15:41:04;2.97;;;0.40;;
81320;SDS011;70785;52.570;5.638;2024-03-23T15:43:31;2.30;;;0.30;;
81320;SDS011;70785;52.570;5.638;2024-03-23T15:45:58;4.25;;;0.80;;
81320;SDS011;70785;52.570;5.638;2024-03-23T15:50:55;3.38;;;0.35;;
81320;SDS011;70785;52.570;5.638;2024-03-23T15:53:26;2.70;;;0.40;;
81320;SDS011;70785;52.570;5.638;2024-03-23T15:58:20;1.92;;;0.57;;
81320;SDS011;70785;52.570;5.638;2024-03-23T16:00:54;4.03;;;0.73;;